createdAt,value
2023-05-06T00:01:46.300Z,71.31
2023-05-06T00:04:13.374Z,71.24
2023-05-06T00:06:41.868Z,71.11
2023-05-06T00:09:08.657Z,71.08
2023-05-06T00:11:35.474Z,71.14
2023-05-06T00:14:02.252Z,71.34
2023-05-06T00:16:29.119Z,71.26
2023-05-06T00:18:55.949Z,71.21
2023-05-06T00:21:22.723Z,71.38
2023-05-06T00:23:49.447Z,71.57
2023-05-06T00:26:16.352Z,71.68
2023-05-06T00:28:43.121Z,71.96
2023-05-06T00:31:10.017Z,72.12
2023-05-06T00:33:37.057Z,72.33
2023-05-06T00:36:04.153Z,72.38
2023-05-06T00:38:31.054Z,72.37
2023-05-06T00:40:57.899Z,72.50
2023-05-06T00:43:25.257Z,72.58
2023-05-06T00:45:52.154Z,72.53
2023-05-06T00:48:19.063Z,72.38
2023-05-06T00:50:45.833Z,72.24
2023-05-06T00:53:12.713Z,72.15
2023-05-06T00:55:39.856Z,72.07
2023-05-06T00:58:06.704Z,71.86
2023-05-06T01:00:33.653Z,71.90
2023-05-06T01:03:02.737Z,71.86
2023-05-06T01:05:34.418Z,71.79
2023-05-06T01:08:26.429Z,71.70
2023-05-06T01:11:24.332Z,71.69
2023-05-06T01:14:00.155Z,71.73
2023-05-06T01:16:32.418Z,71.78
2023-05-06T01:18:59.429Z,71.81
2023-05-06T01:21:26.809Z,71.80
2023-05-06T01:23:58.409Z,71.67
2023-05-06T01:26:26.519Z,71.61
2023-05-06T01:28:54.209Z,71.69
2023-05-06T01:31:30.342Z,71.82
2023-05-06T01:34:21.290Z,72.06
2023-05-06T01:37:06.841Z,72.27
2023-05-06T01:39:33.701Z,72.35
2023-05-06T01:42:00.897Z,72.31
2023-05-06T01:44:29.477Z,72.26
2023-05-06T01:46:56.370Z,72.25
2023-05-06T01:49:23.713Z,72.03
2023-05-06T01:51:51.773Z,71.74
2023-05-06T01:54:18.683Z,71.72
2023-05-06T01:56:46.743Z,71.81
2023-05-06T01:59:15.000Z,71.95
2023-05-06T02:01:41.832Z,72.13
2023-05-06T02:04:08.927Z,72.36
2023-05-06T02:06:36.201Z,72.70
2023-05-06T02:09:04.414Z,72.62
2023-05-06T02:11:34.082Z,72.59
2023-05-06T02:14:06.511Z,72.90
2023-05-06T02:16:34.288Z,73.10
2023-05-06T02:19:01.186Z,73.16
2023-05-06T02:21:28.242Z,73.10
2023-05-06T02:23:55.102Z,73.22
2023-05-06T02:26:23.173Z,73.39
2023-05-06T02:28:50.129Z,73.26
2023-05-06T02:31:17.062Z,73.10
2023-05-06T02:33:45.056Z,72.77
2023-05-06T02:36:11.910Z,72.33
2023-05-06T02:38:38.749Z,72.22
2023-05-06T02:41:05.564Z,72.10
2023-05-06T02:43:33.026Z,72.04
2023-05-06T02:46:00.058Z,71.81
2023-05-06T02:48:26.998Z,71.81
2023-05-06T02:50:53.890Z,71.50
2023-05-06T02:53:20.820Z,70.90
2023-05-06T02:55:47.773Z,70.51
2023-05-06T02:58:14.940Z,70.39
2023-05-06T03:00:42.062Z,70.07
2023-05-06T03:03:09.977Z,70.01
2023-05-06T03:05:36.881Z,69.89
2023-05-06T03:08:05.397Z,69.67
2023-05-06T03:10:32.682Z,69.81
2023-05-06T03:13:00.318Z,69.77
2023-05-06T03:15:28.398Z,69.71
2023-05-06T03:17:55.868Z,69.64
2023-05-06T03:20:23.757Z,69.76
2023-05-06T03:22:52.595Z,69.62
2023-05-06T03:25:20.078Z,69.15
2023-05-06T03:27:47.394Z,69.02
2023-05-06T03:30:18.210Z,69.10
2023-05-06T03:32:45.529Z,69.27
2023-05-06T03:35:15.143Z,69.35
2023-05-06T03:37:43.358Z,69.28
2023-05-06T03:40:10.568Z,69.45
2023-05-06T03:42:37.947Z,69.65
2023-05-06T03:45:06.660Z,70.00
2023-05-06T03:47:33.747Z,70.04
2023-05-06T03:50:01.824Z,69.75
2023-05-06T03:52:30.095Z,69.89
2023-05-06T03:54:58.489Z,69.75
2023-05-06T03:57:27.814Z,69.75
2023-05-06T03:59:56.231Z,69.52
2023-05-06T04:02:23.873Z,69.40
2023-05-06T04:04:51.502Z,69.33
2023-05-06T04:07:18.339Z,69.28
2023-05-06T04:09:45.263Z,68.71
2023-05-06T04:12:12.120Z,68.36
2023-05-06T04:14:39.717Z,68.13
2023-05-06T04:17:07.991Z,67.72
2023-05-06T04:19:34.966Z,66.48
2023-05-06T04:22:02.595Z,66.01
2023-05-06T04:24:31.425Z,65.74
2023-05-06T04:26:59.357Z,65.65
2023-05-06T04:29:27.144Z,65.68
2023-05-06T04:31:58.188Z,65.53
2023-05-06T04:34:27.947Z,65.47
2023-05-06T04:36:58.216Z,65.49
2023-05-06T04:39:49.007Z,65.64
2023-05-06T04:42:17.135Z,65.76
2023-05-06T04:44:52.166Z,65.60
2023-05-06T04:47:21.279Z,65.29
2023-05-06T04:49:49.795Z,65.15
2023-05-06T04:52:17.203Z,64.85
2023-05-06T04:54:45.669Z,64.04
2023-05-06T04:57:13.138Z,63.25
2023-05-06T04:59:41.852Z,62.99
2023-05-06T05:02:09.129Z,62.60
2023-05-06T05:04:37.064Z,62.23
2023-05-06T05:07:04.321Z,61.70
2023-05-06T05:09:31.624Z,61.36
2023-05-06T05:11:58.525Z,61.61
2023-05-06T05:14:26.462Z,61.36
2023-05-06T05:16:53.509Z,60.62
2023-05-06T05:19:21.464Z,60.09
2023-05-06T05:21:49.346Z,59.58
2023-05-06T05:24:17.083Z,59.00
2023-05-06T05:26:43.886Z,58.77
2023-05-06T05:29:11.416Z,58.49
2023-05-06T05:31:38.535Z,58.39
2023-05-06T05:34:06.750Z,58.33
2023-05-06T05:36:33.795Z,57.22
2023-05-06T05:39:02.427Z,56.45
2023-05-06T05:41:29.957Z,55.96
2023-05-06T05:43:56.830Z,55.71
2023-05-06T05:46:24.018Z,55.47
2023-05-06T05:48:51.483Z,55.65
2023-05-06T05:51:18.523Z,55.22
2023-05-06T05:53:45.730Z,54.83
2023-05-06T05:56:13.321Z,53.39
2023-05-06T05:58:40.943Z,52.07
2023-05-06T06:01:08.503Z,50.83
2023-05-06T06:03:35.898Z,50.71
2023-05-06T06:06:02.954Z,50.64
2023-05-06T06:08:31.865Z,49.26
2023-05-06T06:10:59.250Z,48.25
2023-05-06T06:13:30.543Z,47.30
2023-05-06T06:15:58.674Z,46.43
2023-05-06T06:18:25.641Z,45.81
2023-05-06T06:20:53.498Z,44.95
2023-05-06T06:23:21.078Z,44.31
2023-05-06T06:25:48.036Z,43.85
2023-05-06T06:28:15.730Z,43.48
2023-05-06T06:30:43.790Z,42.95
2023-05-06T06:33:10.569Z,42.98
2023-05-06T06:35:37.360Z,42.42
2023-05-06T06:38:04.149Z,42.48
2023-05-06T06:40:31.132Z,42.60
2023-05-06T06:42:57.995Z,42.44
2023-05-06T06:45:51.176Z,42.48
2023-05-06T06:48:18.099Z,42.17
2023-05-06T06:50:45.194Z,42.01
2023-05-06T06:53:12.005Z,41.44
2023-05-06T06:55:38.857Z,40.90
2023-05-06T06:58:05.871Z,41.15
2023-05-06T07:00:32.823Z,41.25
2023-05-06T07:02:59.686Z,40.91
2023-05-06T07:05:27.483Z,40.64
2023-05-06T07:07:54.934Z,40.46
2023-05-06T07:10:22.348Z,39.67
2023-05-06T07:12:49.165Z,38.98
2023-05-06T07:15:15.999Z,38.40
2023-05-06T07:17:42.962Z,38.47
2023-05-06T07:20:10.672Z,38.32
2023-05-06T07:22:37.531Z,37.86
2023-05-06T07:25:04.674Z,37.32
2023-05-06T07:27:31.596Z,37.60
2023-05-06T07:29:58.477Z,37.45
2023-05-06T07:32:25.256Z,37.16
2023-05-06T07:34:52.075Z,37.09
2023-05-06T07:37:18.818Z,36.35
2023-05-06T07:39:45.687Z,36.42
2023-05-06T07:42:13.218Z,36.37
2023-05-06T07:44:40.255Z,36.57
2023-05-06T07:47:07.398Z,35.83
2023-05-06T07:49:35.263Z,35.55
2023-05-06T07:54:08.416Z,35.52
2023-05-06T07:56:35.517Z,35.05
2023-05-06T07:59:02.194Z,35.19
2023-05-06T08:01:28.985Z,35.37
2023-05-06T08:03:55.831Z,35.07
2023-05-06T08:06:22.904Z,34.61
2023-05-06T08:08:49.567Z,34.52
2023-05-06T08:11:17.491Z,34.46
2023-05-06T08:13:46.466Z,34.30
2023-05-06T08:16:13.124Z,34.12
2023-05-06T08:18:40.097Z,33.75
2023-05-06T08:21:06.657Z,33.44
2023-05-06T08:23:34.780Z,33.65
2023-05-06T08:26:01.470Z,33.44
2023-05-06T08:28:28.785Z,33.24
2023-05-06T08:30:55.449Z,32.98
2023-05-06T08:33:22.416Z,32.93
2023-05-06T08:35:50.226Z,33.13
2023-05-06T08:38:18.243Z,33.15
2023-05-06T08:40:44.948Z,32.84
2023-05-06T08:43:15.108Z,32.67
2023-05-06T08:45:42.114Z,32.52
2023-05-06T08:48:09.235Z,32.27
2023-05-06T08:50:42.545Z,32.10
2023-05-06T08:53:12.910Z,32.00
2023-05-06T08:55:42.940Z,31.47
2023-05-06T08:58:11.135Z,31.30
2023-05-06T09:00:37.882Z,30.41
2023-05-06T09:03:05.263Z,30.58
2023-05-06T09:05:31.848Z,30.42
2023-05-06T09:07:58.870Z,30.22
2023-05-06T09:10:30.982Z,29.88
2023-05-06T09:12:57.669Z,29.26
2023-05-06T09:15:25.911Z,28.97
2023-05-06T09:17:53.477Z,28.73
2023-05-06T09:20:20.228Z,28.65
2023-05-06T09:22:47.092Z,28.45
2023-05-06T09:25:13.737Z,27.71
2023-05-06T09:27:40.570Z,27.25
2023-05-06T09:30:08.971Z,26.56
2023-05-06T09:32:39.125Z,26.04
2023-05-06T09:35:08.228Z,25.56
2023-05-06T09:37:35.724Z,25.28
2023-05-06T09:40:02.645Z,24.85
2023-05-06T09:42:30.357Z,24.65
2023-05-06T09:45:01.374Z,24.33
2023-05-06T09:47:33.211Z,24.05
2023-05-06T09:50:02.795Z,23.69
2023-05-06T09:52:30.508Z,23.80
2023-05-06T09:54:57.161Z,23.71
2023-05-06T09:57:23.878Z,23.27
2023-05-06T09:59:51.628Z,23.10
2023-05-06T10:02:18.877Z,22.79
2023-05-06T10:04:45.865Z,22.74
2023-05-06T10:07:13.360Z,22.79
2023-05-06T10:09:40.587Z,22.79
2023-05-06T10:12:08.235Z,22.50
2023-05-06T10:14:37.240Z,22.26
2023-05-06T10:17:07.510Z,21.76
2023-05-06T10:19:34.348Z,21.46
2023-05-06T10:22:07.684Z,21.36
2023-05-06T10:24:40.185Z,21.45
2023-05-06T10:27:07.299Z,21.14
2023-05-06T10:29:35.218Z,20.62
2023-05-06T10:32:02.631Z,21.06
2023-05-06T10:34:31.831Z,20.51
2023-05-06T10:36:58.378Z,20.72
2023-05-06T10:39:25.497Z,20.82
2023-05-06T10:41:52.147Z,20.73
2023-05-06T10:44:46.584Z,20.85
2023-05-06T10:47:13.148Z,20.61
2023-05-06T10:49:39.655Z,20.52
2023-05-06T10:52:13.367Z,19.88
2023-05-06T10:54:49.988Z,20.12
2023-05-06T10:57:16.550Z,20.59
2023-05-06T10:59:46.355Z,20.67
2023-05-06T11:02:13.126Z,20.36
2023-05-06T11:04:39.972Z,20.27
2023-05-06T11:07:14.395Z,19.94
2023-05-06T11:10:13.423Z,19.92
2023-05-06T11:12:45.922Z,19.84
2023-05-06T11:15:43.075Z,19.71
2023-05-06T11:18:25.812Z,19.53
2023-05-06T11:20:59.784Z,19.59
2023-05-06T11:23:41.953Z,19.36
2023-05-06T11:26:09.408Z,19.47
2023-05-06T11:28:36.022Z,19.73
2023-05-06T11:31:02.715Z,19.48
2023-05-06T11:33:32.889Z,19.42
2023-05-06T11:36:00.018Z,19.19
2023-05-06T11:38:39.953Z,18.89
2023-05-06T11:41:06.710Z,18.77
2023-05-06T11:43:33.869Z,18.58
2023-05-06T11:46:00.539Z,18.72
2023-05-06T11:48:27.088Z,18.44
2023-05-06T11:50:53.983Z,18.82
2023-05-06T11:53:22.398Z,18.52
2023-05-06T11:55:51.040Z,18.08
2023-05-06T11:58:27.407Z,18.19
2023-05-06T12:00:58.469Z,18.60
2023-05-06T12:03:25.906Z,18.66
2023-05-06T12:05:52.895Z,18.35
2023-05-06T12:08:27.877Z,18.42
2023-05-06T12:10:56.115Z,18.45
2023-05-06T12:13:22.996Z,18.41
2023-05-06T12:15:49.793Z,18.18
2023-05-06T12:18:17.057Z,18.12
2023-05-06T12:20:43.634Z,18.05
2023-05-06T12:23:14.323Z,17.97
2023-05-06T12:25:42.174Z,18.02
2023-05-06T12:28:19.136Z,18.22
2023-05-06T12:30:45.917Z,18.03
2023-05-06T12:33:13.871Z,18.01
2023-05-06T12:35:40.675Z,17.93
2023-05-06T12:38:11.688Z,17.69
2023-05-06T12:40:38.643Z,17.49
2023-05-06T12:43:05.607Z,17.49
2023-05-06T12:45:32.300Z,17.30
2023-05-06T12:48:03.270Z,17.39
2023-05-06T12:50:31.245Z,17.58
2023-05-06T12:52:57.908Z,17.87
2023-05-06T12:55:27.296Z,18.24
2023-05-06T12:57:55.534Z,18.97
2023-05-06T13:00:23.422Z,19.54
2023-05-06T13:02:50.100Z,20.12
2023-05-06T13:05:16.830Z,20.59
2023-05-06T13:07:43.454Z,21.08
2023-05-06T13:10:10.917Z,21.43
2023-05-06T13:12:38.027Z,21.93
2023-05-06T13:15:05.197Z,22.15
2023-05-06T13:17:32.148Z,22.42
2023-05-06T13:19:58.766Z,23.02
2023-05-06T13:22:25.363Z,23.63
2023-05-06T13:24:52.962Z,23.99
2023-05-06T13:27:19.519Z,24.31
2023-05-06T13:29:46.060Z,24.59
2023-05-06T13:32:12.649Z,24.70
2023-05-06T13:34:39.397Z,24.94
2023-05-06T13:37:07.106Z,24.89
2023-05-06T13:39:34.513Z,24.86
2023-05-06T13:42:02.043Z,24.93
2023-05-06T13:44:29.126Z,25.46
2023-05-06T13:46:56.083Z,25.78
2023-05-06T13:49:22.692Z,25.87
2023-05-06T13:51:49.461Z,25.68
2023-05-06T13:54:16.193Z,25.40
2023-05-06T13:56:43.027Z,25.43
2023-05-06T13:59:11.194Z,25.42
2023-05-06T14:01:38.574Z,25.68
2023-05-06T14:04:05.356Z,26.26
2023-05-06T14:06:32.756Z,26.53
2023-05-06T14:08:59.770Z,26.57
2023-05-06T14:11:26.284Z,26.44
2023-05-06T14:13:53.461Z,26.45
2023-05-06T14:16:20.079Z,26.81
2023-05-06T14:18:46.986Z,26.94
2023-05-06T14:21:13.715Z,27.17
2023-05-06T14:23:40.342Z,27.24
2023-05-06T14:26:07.140Z,27.33
2023-05-06T14:28:34.006Z,27.24
2023-05-06T14:31:00.612Z,27.18
2023-05-06T14:33:27.188Z,27.37
2023-05-06T14:35:53.898Z,27.52
2023-05-06T14:38:20.393Z,27.83
2023-05-06T14:40:46.866Z,27.99
2023-05-06T14:43:13.831Z,28.21
2023-05-06T14:45:40.374Z,28.26
2023-05-06T14:48:06.956Z,28.40
2023-05-06T14:50:34.120Z,28.67
2023-05-06T14:53:02.949Z,28.87
2023-05-06T14:55:32.990Z,28.86
2023-05-06T14:57:59.746Z,29.13
2023-05-06T15:00:26.433Z,29.38
2023-05-06T15:02:53.293Z,29.63
2023-05-06T15:05:20.011Z,29.68
2023-05-06T15:07:46.769Z,29.99
2023-05-06T15:10:13.476Z,29.69
2023-05-06T15:12:40.414Z,30.03
2023-05-06T15:15:07.707Z,30.25
2023-05-06T15:17:34.492Z,30.26
2023-05-06T15:20:01.350Z,30.25
2023-05-06T15:22:28.194Z,30.28
2023-05-06T15:24:54.782Z,30.50
2023-05-06T15:27:21.412Z,30.57
2023-05-06T15:29:48.248Z,30.80
2023-05-06T15:32:14.780Z,30.98
2023-05-06T15:34:41.436Z,31.07
2023-05-06T15:37:08.124Z,31.37
2023-05-06T15:39:38.168Z,31.31
2023-05-06T15:42:05.652Z,31.40
2023-05-06T15:44:33.297Z,31.44
2023-05-06T15:47:00.418Z,31.70
2023-05-06T15:49:49.388Z,31.85
2023-05-06T15:52:14.020Z,31.98
2023-05-06T15:54:41.311Z,31.81
2023-05-06T15:57:08.129Z,31.99
2023-05-06T15:59:35.246Z,31.89
2023-05-06T16:04:32.869Z,32.06
2023-05-06T16:06:59.596Z,32.18
2023-05-06T16:09:26.216Z,32.14
2023-05-06T16:11:54.207Z,32.21
2023-05-06T16:14:20.975Z,32.25
2023-05-06T16:16:47.525Z,32.22
2023-05-06T16:19:14.054Z,32.22
2023-05-06T16:21:40.775Z,32.06
2023-05-06T16:24:08.087Z,32.01
2023-05-06T16:26:36.180Z,32.26
2023-05-06T16:29:02.969Z,32.55
2023-05-06T16:31:30.039Z,32.66
2023-05-06T16:33:56.844Z,32.65
2023-05-06T16:36:23.400Z,32.64
2023-05-06T16:38:50.082Z,32.83
2023-05-06T16:41:16.859Z,32.92
2023-05-06T16:43:43.529Z,32.88
2023-05-06T16:46:10.457Z,33.02
2023-05-06T16:48:38.032Z,33.16
2023-05-06T16:51:04.862Z,33.43
2023-05-06T16:53:31.731Z,33.52
2023-05-06T16:56:00.699Z,33.70
2023-05-06T16:58:29.590Z,33.68
2023-05-06T17:00:56.239Z,33.70
2023-05-06T17:03:22.911Z,33.85
2023-05-06T17:05:49.994Z,33.68
2023-05-06T17:08:16.604Z,33.94
2023-05-06T17:10:43.200Z,33.90
2023-05-06T17:13:10.022Z,34.20
2023-05-06T17:15:36.896Z,34.29
2023-05-06T17:18:03.624Z,34.37
2023-05-06T17:20:31.316Z,34.75
2023-05-06T17:22:57.994Z,34.72
2023-05-06T17:25:24.833Z,34.71
2023-05-06T17:27:51.483Z,34.73
2023-05-06T17:30:18.208Z,34.83
2023-05-06T17:32:44.931Z,34.96
2023-05-06T17:35:12.040Z,35.06
2023-05-06T17:37:39.220Z,34.99
2023-05-06T17:40:07.045Z,35.30
2023-05-06T17:42:36.021Z,35.07
2023-05-06T17:45:02.803Z,35.16
2023-05-06T17:47:30.226Z,35.42
2023-05-06T17:49:57.065Z,35.49
2023-05-06T17:52:26.192Z,35.67
2023-05-06T17:55:10.802Z,35.88
2023-05-06T17:57:39.944Z,35.74
2023-05-06T18:00:14.466Z,35.80
2023-05-06T18:02:45.154Z,35.65
2023-05-06T18:05:13.235Z,35.76
2023-05-06T18:07:41.884Z,35.98
2023-05-06T18:10:09.066Z,36.06
2023-05-06T18:12:36.296Z,36.11
2023-05-06T18:15:04.343Z,36.29
2023-05-06T18:17:31.752Z,36.16
2023-05-06T18:19:58.332Z,36.35
2023-05-06T18:22:25.027Z,36.42
2023-05-06T18:24:55.450Z,36.77
2023-05-06T18:27:23.180Z,36.69
2023-05-06T18:29:50.345Z,36.52
2023-05-06T18:32:17.456Z,36.56
2023-05-06T18:34:43.998Z,36.70
2023-05-06T18:37:10.682Z,36.50
2023-05-06T18:39:44.860Z,36.82
2023-05-06T18:42:11.383Z,36.81
2023-05-06T18:44:39.008Z,36.94
2023-05-06T18:47:05.967Z,37.05
2023-05-06T18:49:32.639Z,37.06
2023-05-06T18:51:59.402Z,37.16
2023-05-06T18:54:25.976Z,37.16
2023-05-06T18:56:58.167Z,37.41
2023-05-06T18:59:25.308Z,37.47
2023-05-06T19:01:53.247Z,37.66
2023-05-06T19:04:20.022Z,37.69
2023-05-06T19:06:46.679Z,37.75
2023-05-06T19:09:13.602Z,37.56
2023-05-06T19:11:40.227Z,37.51
2023-05-06T19:14:06.948Z,37.37
2023-05-06T19:16:33.810Z,37.17
2023-05-06T19:19:02.151Z,37.16
2023-05-06T19:21:29.109Z,37.10
2023-05-06T19:23:59.137Z,37.21
2023-05-06T19:26:29.237Z,37.31
2023-05-06T19:28:55.781Z,37.37
2023-05-06T19:31:22.804Z,37.24
2023-05-06T19:33:49.994Z,37.08
2023-05-06T19:36:16.713Z,37.31
2023-05-06T19:38:43.339Z,37.41
2023-05-06T19:41:10.344Z,37.23
2023-05-06T19:43:41.546Z,37.44
2023-05-06T19:46:08.851Z,37.62
2023-05-06T19:48:36.782Z,37.79
2023-05-06T19:51:04.191Z,37.87
2023-05-06T19:53:32.167Z,37.50
2023-05-06T19:56:06.843Z,37.58
2023-05-06T19:58:33.495Z,37.54
2023-05-06T20:01:00.314Z,37.70
2023-05-06T20:03:26.993Z,37.77
2023-05-06T20:05:54.190Z,37.99
2023-05-06T20:11:26.948Z,37.99
2023-05-06T20:13:53.870Z,37.98
2023-05-06T20:16:20.719Z,38.16
2023-05-06T20:18:48.393Z,38.25
2023-05-06T20:21:16.128Z,38.47
2023-05-06T20:23:42.877Z,38.85
2023-05-06T20:26:09.700Z,38.78
2023-05-06T20:28:39.227Z,38.99
2023-05-06T20:31:07.078Z,38.96
2023-05-06T20:33:34.085Z,38.87
2023-05-06T20:36:00.861Z,39.09
2023-05-06T20:38:30.256Z,39.20
2023-05-06T20:40:58.996Z,38.96
2023-05-06T20:43:25.933Z,39.30
2023-05-06T20:45:52.802Z,39.36
2023-05-06T20:48:19.849Z,39.55
2023-05-06T20:50:46.779Z,39.58
2023-05-06T20:53:13.680Z,39.75
2023-05-06T20:55:40.841Z,39.69
2023-05-06T20:58:08.013Z,39.69
2023-05-06T21:00:34.867Z,39.91
2023-05-06T21:03:02.141Z,39.91
2023-05-06T21:05:29.329Z,40.13
2023-05-06T21:07:56.103Z,40.51
2023-05-06T21:10:22.978Z,40.64
2023-05-06T21:12:50.941Z,41.37
2023-05-06T21:15:17.987Z,41.54
2023-05-06T21:17:45.077Z,41.80
2023-05-06T21:20:13.014Z,41.74
2023-05-06T21:22:40.139Z,41.95
2023-05-06T21:25:08.414Z,42.20
2023-05-06T21:27:35.991Z,42.18
2023-05-06T21:30:03.442Z,42.73
2023-05-06T21:32:33.327Z,43.06
2023-05-06T21:35:03.951Z,43.57
2023-05-06T21:37:30.783Z,43.59
2023-05-06T21:39:57.650Z,44.07
2023-05-06T21:42:24.414Z,44.43
2023-05-06T21:44:51.154Z,44.82
2023-05-06T21:47:17.900Z,45.23
2023-05-06T21:49:44.664Z,45.31
2023-05-06T21:52:11.537Z,45.33
2023-05-06T21:54:38.406Z,45.62
2023-05-06T21:57:08.164Z,45.35
2023-05-06T21:59:35.780Z,45.30
2023-05-06T22:02:03.520Z,44.62
2023-05-06T22:04:30.823Z,43.98
2023-05-06T22:06:57.678Z,43.35
2023-05-06T22:09:24.559Z,43.12
2023-05-06T22:11:51.953Z,42.76
2023-05-06T22:14:21.959Z,42.66
2023-05-06T22:16:52.805Z,42.62
2023-05-06T22:19:20.367Z,42.65
2023-05-06T22:21:47.339Z,42.59
2023-05-06T22:24:14.124Z,42.82
2023-05-06T22:26:40.987Z,42.88
2023-05-06T22:29:07.819Z,42.97
2023-05-06T22:31:34.679Z,42.81
2023-05-06T22:34:04.969Z,42.77
2023-05-06T22:36:33.682Z,43.23
2023-05-06T22:39:01.556Z,43.58
2023-05-06T22:41:29.706Z,43.71
2023-05-06T22:43:57.382Z,43.51
2023-05-06T22:46:24.228Z,43.49
2023-05-06T22:48:51.209Z,43.35
2023-05-06T22:51:17.924Z,43.55
2023-05-06T22:53:45.354Z,43.24
2023-05-06T22:56:12.146Z,43.27
2023-05-06T22:58:38.973Z,43.84
2023-05-06T23:01:07.471Z,43.89
2023-05-06T23:03:35.259Z,44.14
2023-05-06T23:06:03.958Z,43.79
2023-05-06T23:08:30.816Z,43.71
2023-05-06T23:10:57.550Z,43.42
2023-05-06T23:13:24.506Z,43.57
2023-05-06T23:15:52.037Z,43.71
2023-05-06T23:18:19.327Z,44.14
2023-05-06T23:20:46.105Z,44.12
2023-05-06T23:23:12.946Z,43.96
2023-05-06T23:25:39.763Z,44.20
2023-05-06T23:28:06.534Z,44.41
2023-05-06T23:30:33.830Z,44.08
2023-05-06T23:33:00.724Z,44.36
2023-05-06T23:35:27.598Z,43.87
2023-05-06T23:37:54.438Z,43.59
2023-05-06T23:40:21.246Z,43.68
2023-05-06T23:42:48.112Z,43.70
2023-05-06T23:45:14.985Z,44.04
2023-05-06T23:47:42.207Z,43.85
2023-05-06T23:50:09.708Z,43.72
2023-05-06T23:52:38.654Z,43.66
2023-05-06T23:55:06.216Z,43.61
2023-05-06T23:57:33.028Z,43.36
2023-05-06T23:59:59.828Z,43.62
